sensor_id;sensor_type;location;lat;lon;timestamp;P1;durP1;ratioP1;P2;durP2;ratioP2
76656;SDS011;65576;47.714;9.414;2024-01-30T00:01:06;4.95;;;2.75;;
76656;SDS011;65576;47.714;9.414;2024-01-30T00:03:32;2.20;;;2.00;;
76656;SDS011;65576;47.714;9.414;2024-01-30T00:05:57;2.03;;;1.60;;
76656;SDS011;65576;47.714;9.414;2024-01-30T00:08:22;1.63;;;1.52;;
76656;SDS011;65576;47.714;9.414;2024-01-30T00:10:48;2.05;;;1.90;;
76656;SDS011;65576;47.714;9.414;2024-01-30T00:13:13;2.47;;;1.95;;
76656;SDS011;65576;47.714;9.414;2024-01-30T00:15:41;3.80;;;2.35;;
76656;SDS011;65576;47.714;9.414;2024-01-30T00:18:06;3.80;;;2.53;;
76656;SDS011;65576;47.714;9.414;2024-01-30T00:20:31;2.30;;;2.10;;
76656;SDS011;65576;47.714;9.414;2024-01-30T00:22:57;1.23;;;1.13;;
76656;SDS011;65576;47.714;9.414;2024-01-30T00:25:22;3.65;;;1.95;;
76656;SDS011;65576;47.714;9.414;2024-01-30T00:27:47;2.60;;;2.30;;
76656;SDS011;65576;47.714;9.414;2024-01-30T00:30:13;2.13;;;1.42;;
76656;SDS011;65576;47.714;9.414;2024-01-30T00:32:38;3.05;;;1.35;;
76656;SDS011;65576;47.714;9.414;2024-01-30T00:35:04;3.67;;;2.08;;
76656;SDS011;65576;47.714;9.414;2024-01-30T00:37:29;1.65;;;1.55;;
76656;SDS011;65576;47.714;9.414;2024-01-30T00:39:56;3.13;;;1.90;;
76656;SDS011;65576;47.714;9.414;2024-01-30T00:42:21;2.85;;;2.17;;
76656;SDS011;65576;47.714;9.414;2024-01-30T00:44:48;1.33;;;1.27;;
76656;SDS011;65576;47.714;9.414;2024-01-30T00:47:14;5.40;;;2.45;;
76656;SDS011;65576;47.714;9.414;2024-01-30T00:49:39;2.53;;;1.45;;
76656;SDS011;65576;47.714;9.414;2024-01-30T00:52:04;1.60;;;1.48;;
76656;SDS011;65576;47.714;9.414;2024-01-30T00:54:30;0.80;;;0.80;;
76656;SDS011;65576;47.714;9.414;2024-01-30T00:56:55;2.15;;;1.95;;
76656;SDS011;65576;47.714;9.414;2024-01-30T00:59:21;1.88;;;1.67;;
76656;SDS011;65576;47.714;9.414;2024-01-30T01:01:47;2.65;;;2.22;;
76656;SDS011;65576;47.714;9.414;2024-01-30T01:04:12;3.58;;;2.30;;
76656;SDS011;65576;47.714;9.414;2024-01-30T01:06:37;1.77;;;1.50;;
76656;SDS011;65576;47.714;9.414;2024-01-30T01:09:03;1.40;;;1.30;;
76656;SDS011;65576;47.714;9.414;2024-01-30T01:11:28;1.23;;;1.13;;
76656;SDS011;65576;47.714;9.414;2024-01-30T01:13:54;2.35;;;1.92;;
76656;SDS011;65576;47.714;9.414;2024-01-30T01:16:19;2.35;;;1.95;;
76656;SDS011;65576;47.714;9.414;2024-01-30T01:18:44;1.77;;;1.52;;
76656;SDS011;65576;47.714;9.414;2024-01-30T01:21:10;2.72;;;2.45;;
76656;SDS011;65576;47.714;9.414;2024-01-30T01:23:35;4.55;;;1.70;;
76656;SDS011;65576;47.714;9.414;2024-01-30T01:26:00;1.45;;;1.27;;
76656;SDS011;65576;47.714;9.414;2024-01-30T01:28:26;1.90;;;1.75;;
76656;SDS011;65576;47.714;9.414;2024-01-30T01:30:52;4.30;;;2.63;;
76656;SDS011;65576;47.714;9.414;2024-01-30T01:33:17;1.38;;;1.27;;
76656;SDS011;65576;47.714;9.414;2024-01-30T01:35:42;2.88;;;1.55;;
76656;SDS011;65576;47.714;9.414;2024-01-30T01:38:08;2.35;;;1.85;;
76656;SDS011;65576;47.714;9.414;2024-01-30T01:40:33;1.90;;;1.75;;
76656;SDS011;65576;47.714;9.414;2024-01-30T01:42:58;1.67;;;1.50;;
76656;SDS011;65576;47.714;9.414;2024-01-30T01:45:24;3.25;;;2.15;;
76656;SDS011;65576;47.714;9.414;2024-01-30T01:47:52;1.95;;;1.77;;
76656;SDS011;65576;47.714;9.414;2024-01-30T01:50:18;1.63;;;1.50;;
76656;SDS011;65576;47.714;9.414;2024-01-30T01:52:44;1.35;;;1.25;;
76656;SDS011;65576;47.714;9.414;2024-01-30T01:55:10;2.38;;;2.03;;
76656;SDS011;65576;47.714;9.414;2024-01-30T01:57:36;1.73;;;1.58;;
76656;SDS011;65576;47.714;9.414;2024-01-30T02:00:01;2.72;;;2.13;;
76656;SDS011;65576;47.714;9.414;2024-01-30T02:02:29;1.80;;;1.70;;
76656;SDS011;65576;47.714;9.414;2024-01-30T02:04:56;1.88;;;1.73;;
76656;SDS011;65576;47.714;9.414;2024-01-30T02:07:22;2.58;;;1.77;;
76656;SDS011;65576;47.714;9.414;2024-01-30T02:09:47;2.55;;;2.13;;
76656;SDS011;65576;47.714;9.414;2024-01-30T02:12:12;2.40;;;1.75;;
76656;SDS011;65576;47.714;9.414;2024-01-30T02:14:47;1.90;;;1.77;;
76656;SDS011;65576;47.714;9.414;2024-01-30T02:17:13;3.38;;;2.78;;
76656;SDS011;65576;47.714;9.414;2024-01-30T02:19:39;1.45;;;1.35;;
76656;SDS011;65576;47.714;9.414;2024-01-30T02:22:05;1.63;;;1.52;;
76656;SDS011;65576;47.714;9.414;2024-01-30T02:24:31;3.05;;;2.47;;
76656;SDS011;65576;47.714;9.414;2024-01-30T02:26:56;2.60;;;1.90;;
76656;SDS011;65576;47.714;9.414;2024-01-30T02:29:21;4.75;;;2.55;;
76656;SDS011;65576;47.714;9.414;2024-01-30T02:31:47;2.53;;;2.35;;
76656;SDS011;65576;47.714;9.414;2024-01-30T02:34:12;1.63;;;1.52;;
76656;SDS011;65576;47.714;9.414;2024-01-30T02:36:38;4.78;;;1.83;;
76656;SDS011;65576;47.714;9.414;2024-01-30T02:39:03;3.70;;;1.23;;
76656;SDS011;65576;47.714;9.414;2024-01-30T02:41:29;3.53;;;2.45;;
76656;SDS011;65576;47.714;9.414;2024-01-30T02:43:54;3.50;;;1.90;;
76656;SDS011;65576;47.714;9.414;2024-01-30T02:46:19;3.17;;;2.20;;
76656;SDS011;65576;47.714;9.414;2024-01-30T02:48:45;2.65;;;1.90;;
76656;SDS011;65576;47.714;9.414;2024-01-30T02:51:10;4.72;;;2.38;;
76656;SDS011;65576;47.714;9.414;2024-01-30T02:53:35;2.78;;;2.17;;
76656;SDS011;65576;47.714;9.414;2024-01-30T02:56:01;3.65;;;3.00;;
76656;SDS011;65576;47.714;9.414;2024-01-30T02:58:27;5.88;;;2.35;;
76656;SDS011;65576;47.714;9.414;2024-01-30T03:00:52;4.53;;;2.35;;
76656;SDS011;65576;47.714;9.414;2024-01-30T03:03:18;1.52;;;1.42;;
76656;SDS011;65576;47.714;9.414;2024-01-30T03:05:43;2.10;;;1.70;;
76656;SDS011;65576;47.714;9.414;2024-01-30T03:08:08;4.85;;;3.00;;
76656;SDS011;65576;47.714;9.414;2024-01-30T03:10:34;4.57;;;2.47;;
76656;SDS011;65576;47.714;9.414;2024-01-30T03:12:59;1.80;;;1.40;;
76656;SDS011;65576;47.714;9.414;2024-01-30T03:15:24;3.28;;;2.80;;
76656;SDS011;65576;47.714;9.414;2024-01-30T03:17:50;2.38;;;2.00;;
76656;SDS011;65576;47.714;9.414;2024-01-30T03:20:15;2.33;;;2.13;;
76656;SDS011;65576;47.714;9.414;2024-01-30T03:22:40;2.88;;;1.80;;
76656;SDS011;65576;47.714;9.414;2024-01-30T03:25:06;4.32;;;2.33;;
76656;SDS011;65576;47.714;9.414;2024-01-30T03:27:31;2.42;;;2.20;;
76656;SDS011;65576;47.714;9.414;2024-01-30T03:29:57;2.03;;;1.90;;
76656;SDS011;65576;47.714;9.414;2024-01-30T03:32:22;1.77;;;1.63;;
76656;SDS011;65576;47.714;9.414;2024-01-30T03:34:47;3.78;;;2.38;;
76656;SDS011;65576;47.714;9.414;2024-01-30T03:37:13;1.55;;;1.42;;
76656;SDS011;65576;47.714;9.414;2024-01-30T03:39:38;1.65;;;1.48;;
76656;SDS011;65576;47.714;9.414;2024-01-30T03:42:04;1.67;;;1.58;;
76656;SDS011;65576;47.714;9.414;2024-01-30T03:44:29;1.80;;;1.70;;
76656;SDS011;65576;47.714;9.414;2024-01-30T03:46:54;1.92;;;1.83;;
76656;SDS011;65576;47.714;9.414;2024-01-30T03:49:19;2.60;;;2.40;;
76656;SDS011;65576;47.714;9.414;2024-01-30T03:51:45;1.95;;;1.50;;
76656;SDS011;65576;47.714;9.414;2024-01-30T03:54:12;1.65;;;1.55;;
76656;SDS011;65576;47.714;9.414;2024-01-30T03:56:37;1.98;;;1.80;;
76656;SDS011;65576;47.714;9.414;2024-01-30T03:59:03;1.33;;;1.23;;
76656;SDS011;65576;47.714;9.414;2024-01-30T04:01:28;1.13;;;1.02;;
76656;SDS011;65576;47.714;9.414;2024-01-30T04:03:53;1.67;;;1.58;;
76656;SDS011;65576;47.714;9.414;2024-01-30T04:06:19;4.70;;;2.72;;
76656;SDS011;65576;47.714;9.414;2024-01-30T04:08:44;3.00;;;2.53;;
76656;SDS011;65576;47.714;9.414;2024-01-30T04:11:09;2.97;;;1.70;;
76656;SDS011;65576;47.714;9.414;2024-01-30T04:13:35;3.90;;;2.80;;
76656;SDS011;65576;47.714;9.414;2024-01-30T04:16:01;2.55;;;2.35;;
76656;SDS011;65576;47.714;9.414;2024-01-30T04:18:27;4.20;;;1.35;;
76656;SDS011;65576;47.714;9.414;2024-01-30T04:20:53;3.95;;;2.58;;
76656;SDS011;65576;47.714;9.414;2024-01-30T04:23:18;3.92;;;2.40;;
76656;SDS011;65576;47.714;9.414;2024-01-30T04:25:43;1.27;;;1.20;;
76656;SDS011;65576;47.714;9.414;2024-01-30T04:28:09;1.77;;;1.52;;
76656;SDS011;65576;47.714;9.414;2024-01-30T04:30:36;2.22;;;1.48;;
76656;SDS011;65576;47.714;9.414;2024-01-30T04:33:02;1.63;;;1.52;;
76656;SDS011;65576;47.714;9.414;2024-01-30T04:35:27;7.32;;;3.85;;
76656;SDS011;65576;47.714;9.414;2024-01-30T04:37:52;1.38;;;1.15;;
76656;SDS011;65576;47.714;9.414;2024-01-30T04:40:18;0.90;;;0.90;;
76656;SDS011;65576;47.714;9.414;2024-01-30T04:42:43;1.95;;;1.85;;
76656;SDS011;65576;47.714;9.414;2024-01-30T04:45:09;2.22;;;1.63;;
76656;SDS011;65576;47.714;9.414;2024-01-30T04:47:34;1.30;;;1.20;;
76656;SDS011;65576;47.714;9.414;2024-01-30T04:49:59;3.65;;;2.45;;
76656;SDS011;65576;47.714;9.414;2024-01-30T04:52:25;3.00;;;2.67;;
76656;SDS011;65576;47.714;9.414;2024-01-30T04:54:50;2.00;;;1.83;;
76656;SDS011;65576;47.714;9.414;2024-01-30T04:57:15;3.65;;;2.15;;
76656;SDS011;65576;47.714;9.414;2024-01-30T04:59:41;1.85;;;1.75;;
76656;SDS011;65576;47.714;9.414;2024-01-30T05:02:06;3.10;;;2.72;;
76656;SDS011;65576;47.714;9.414;2024-01-30T05:04:32;2.53;;;1.67;;
76656;SDS011;65576;47.714;9.414;2024-01-30T05:06:57;1.30;;;1.23;;
76656;SDS011;65576;47.714;9.414;2024-01-30T05:09:22;1.42;;;1.33;;
76656;SDS011;65576;47.714;9.414;2024-01-30T05:11:48;2.15;;;1.90;;
76656;SDS011;65576;47.714;9.414;2024-01-30T05:14:13;1.50;;;1.40;;
76656;SDS011;65576;47.714;9.414;2024-01-30T05:16:40;1.67;;;1.58;;
76656;SDS011;65576;47.714;9.414;2024-01-30T05:19:05;2.00;;;1.90;;
76656;SDS011;65576;47.714;9.414;2024-01-30T05:21:31;2.33;;;1.88;;
76656;SDS011;65576;47.714;9.414;2024-01-30T05:23:56;1.70;;;1.60;;
76656;SDS011;65576;47.714;9.414;2024-01-30T05:26:21;7.53;;;1.52;;
76656;SDS011;65576;47.714;9.414;2024-01-30T05:28:48;1.42;;;1.35;;
76656;SDS011;65576;47.714;9.414;2024-01-30T05:31:13;2.97;;;1.88;;
76656;SDS011;65576;47.714;9.414;2024-01-30T05:33:38;2.33;;;1.77;;
76656;SDS011;65576;47.714;9.414;2024-01-30T05:36:04;2.33;;;1.83;;
76656;SDS011;65576;47.714;9.414;2024-01-30T05:38:30;2.65;;;2.45;;
76656;SDS011;65576;47.714;9.414;2024-01-30T05:40:56;2.00;;;1.77;;
76656;SDS011;65576;47.714;9.414;2024-01-30T05:43:27;2.63;;;1.45;;
76656;SDS011;65576;47.714;9.414;2024-01-30T05:45:52;1.35;;;1.25;;
76656;SDS011;65576;47.714;9.414;2024-01-30T05:48:18;3.33;;;2.33;;
76656;SDS011;65576;47.714;9.414;2024-01-30T05:50:43;1.95;;;1.75;;
76656;SDS011;65576;47.714;9.414;2024-01-30T05:53:08;4.05;;;3.22;;
76656;SDS011;65576;47.714;9.414;2024-01-30T05:55:34;2.13;;;1.58;;
76656;SDS011;65576;47.714;9.414;2024-01-30T05:57:59;6.68;;;1.38;;
76656;SDS011;65576;47.714;9.414;2024-01-30T06:00:24;1.40;;;1.02;;
76656;SDS011;65576;47.714;9.414;2024-01-30T06:02:49;2.53;;;1.77;;
76656;SDS011;65576;47.714;9.414;2024-01-30T06:05:15;1.58;;;1.48;;
76656;SDS011;65576;47.714;9.414;2024-01-30T06:07:40;2.10;;;1.90;;
76656;SDS011;65576;47.714;9.414;2024-01-30T06:10:06;4.82;;;3.58;;
76656;SDS011;65576;47.714;9.414;2024-01-30T06:12:32;4.95;;;2.92;;
76656;SDS011;65576;47.714;9.414;2024-01-30T06:14:57;4.15;;;2.75;;
76656;SDS011;65576;47.714;9.414;2024-01-30T06:17:23;4.75;;;4.05;;
76656;SDS011;65576;47.714;9.414;2024-01-30T06:19:48;3.80;;;3.28;;
76656;SDS011;65576;47.714;9.414;2024-01-30T06:22:13;1.67;;;1.58;;
76656;SDS011;65576;47.714;9.414;2024-01-30T06:24:39;1.63;;;1.52;;
76656;SDS011;65576;47.714;9.414;2024-01-30T06:27:04;3.63;;;1.48;;
76656;SDS011;65576;47.714;9.414;2024-01-30T06:29:29;3.40;;;1.65;;
76656;SDS011;65576;47.714;9.414;2024-01-30T06:31:55;1.67;;;1.38;;
76656;SDS011;65576;47.714;9.414;2024-01-30T06:34:21;1.60;;;1.50;;
76656;SDS011;65576;47.714;9.414;2024-01-30T06:36:46;5.88;;;1.60;;
76656;SDS011;65576;47.714;9.414;2024-01-30T06:39:11;3.55;;;1.77;;
76656;SDS011;65576;47.714;9.414;2024-01-30T06:41:37;6.15;;;2.60;;
76656;SDS011;65576;47.714;9.414;2024-01-30T06:44:02;1.80;;;1.70;;
76656;SDS011;65576;47.714;9.414;2024-01-30T06:46:33;1.98;;;1.83;;
76656;SDS011;65576;47.714;9.414;2024-01-30T06:48:58;2.50;;;1.92;;
76656;SDS011;65576;47.714;9.414;2024-01-30T06:51:23;1.88;;;1.77;;
76656;SDS011;65576;47.714;9.414;2024-01-30T06:53:49;2.10;;;1.95;;
76656;SDS011;65576;47.714;9.414;2024-01-30T06:56:14;1.55;;;1.27;;
76656;SDS011;65576;47.714;9.414;2024-01-30T06:58:39;1.67;;;1.40;;
76656;SDS011;65576;47.714;9.414;2024-01-30T07:01:05;3.85;;;1.90;;
76656;SDS011;65576;47.714;9.414;2024-01-30T07:03:30;2.85;;;2.55;;
76656;SDS011;65576;47.714;9.414;2024-01-30T07:05:55;2.53;;;2.30;;
76656;SDS011;65576;47.714;9.414;2024-01-30T07:08:21;2.47;;;2.28;;
76656;SDS011;65576;47.714;9.414;2024-01-30T07:10:47;1.88;;;1.75;;
76656;SDS011;65576;47.714;9.414;2024-01-30T07:13:12;2.33;;;2.13;;
76656;SDS011;65576;47.714;9.414;2024-01-30T07:15:38;2.67;;;2.17;;
76656;SDS011;65576;47.714;9.414;2024-01-30T07:18:03;2.30;;;2.05;;
76656;SDS011;65576;47.714;9.414;2024-01-30T07:20:29;3.67;;;2.58;;
76656;SDS011;65576;47.714;9.414;2024-01-30T07:22:56;5.63;;;2.97;;
76656;SDS011;65576;47.714;9.414;2024-01-30T07:25:22;2.92;;;2.50;;
76656;SDS011;65576;47.714;9.414;2024-01-30T07:27:51;3.13;;;2.55;;
76656;SDS011;65576;47.714;9.414;2024-01-30T07:30:17;1.75;;;1.65;;
76656;SDS011;65576;47.714;9.414;2024-01-30T07:32:43;1.35;;;1.23;;
76656;SDS011;65576;47.714;9.414;2024-01-30T07:35:09;3.78;;;2.50;;
76656;SDS011;65576;47.714;9.414;2024-01-30T07:37:34;2.13;;;1.92;;
76656;SDS011;65576;47.714;9.414;2024-01-30T07:39:59;1.55;;;1.45;;
76656;SDS011;65576;47.714;9.414;2024-01-30T07:42:25;2.83;;;2.30;;
76656;SDS011;65576;47.714;9.414;2024-01-30T07:44:51;1.48;;;1.38;;
76656;SDS011;65576;47.714;9.414;2024-01-30T07:47:16;2.83;;;2.42;;
76656;SDS011;65576;47.714;9.414;2024-01-30T07:49:41;7.00;;;2.70;;
76656;SDS011;65576;47.714;9.414;2024-01-30T07:52:07;1.88;;;1.70;;
76656;SDS011;65576;47.714;9.414;2024-01-30T07:54:32;1.40;;;1.30;;
76656;SDS011;65576;47.714;9.414;2024-01-30T07:56:58;1.60;;;1.50;;
76656;SDS011;65576;47.714;9.414;2024-01-30T07:59:25;4.15;;;2.38;;
76656;SDS011;65576;47.714;9.414;2024-01-30T08:01:50;3.47;;;3.17;;
76656;SDS011;65576;47.714;9.414;2024-01-30T08:04:15;4.38;;;2.67;;
76656;SDS011;65576;47.714;9.414;2024-01-30T08:06:41;7.22;;;3.70;;
76656;SDS011;65576;47.714;9.414;2024-01-30T08:09:06;6.78;;;2.90;;
76656;SDS011;65576;47.714;9.414;2024-01-30T08:11:32;6.55;;;2.85;;
76656;SDS011;65576;47.714;9.414;2024-01-30T08:13:57;2.05;;;1.95;;
76656;SDS011;65576;47.714;9.414;2024-01-30T08:16:22;2.08;;;1.98;;
76656;SDS011;65576;47.714;9.414;2024-01-30T08:18:48;4.45;;;3.22;;
76656;SDS011;65576;47.714;9.414;2024-01-30T08:21:13;3.47;;;2.83;;
76656;SDS011;65576;47.714;9.414;2024-01-30T08:23:38;3.25;;;2.50;;
76656;SDS011;65576;47.714;9.414;2024-01-30T08:26:04;1.27;;;1.27;;
76656;SDS011;65576;47.714;9.414;2024-01-30T08:28:30;3.25;;;2.42;;
76656;SDS011;65576;47.714;9.414;2024-01-30T08:30:55;3.35;;;2.65;;
76656;SDS011;65576;47.714;9.414;2024-01-30T08:33:20;3.15;;;2.85;;
76656;SDS011;65576;47.714;9.414;2024-01-30T08:35:46;4.30;;;3.40;;
76656;SDS011;65576;47.714;9.414;2024-01-30T08:38:11;3.75;;;3.35;;
76656;SDS011;65576;47.714;9.414;2024-01-30T08:40:37;7.45;;;5.78;;
76656;SDS011;65576;47.714;9.414;2024-01-30T08:43:02;6.15;;;4.85;;
76656;SDS011;65576;47.714;9.414;2024-01-30T08:45:29;9.95;;;5.55;;
76656;SDS011;65576;47.714;9.414;2024-01-30T08:47:55;7.68;;;5.20;;
76656;SDS011;65576;47.714;9.414;2024-01-30T08:50:20;2.05;;;1.70;;
76656;SDS011;65576;47.714;9.414;2024-01-30T08:52:46;2.42;;;2.22;;
76656;SDS011;65576;47.714;9.414;2024-01-30T08:55:11;1.52;;;1.42;;
76656;SDS011;65576;47.714;9.414;2024-01-30T08:57:37;2.90;;;2.60;;
76656;SDS011;65576;47.714;9.414;2024-01-30T09:00:02;1.55;;;1.45;;
76656;SDS011;65576;47.714;9.414;2024-01-30T09:02:31;2.60;;;1.45;;
76656;SDS011;65576;47.714;9.414;2024-01-30T09:04:57;3.20;;;2.63;;
76656;SDS011;65576;47.714;9.414;2024-01-30T09:07:22;5.20;;;2.30;;
76656;SDS011;65576;47.714;9.414;2024-01-30T09:09:47;1.52;;;1.42;;
76656;SDS011;65576;47.714;9.414;2024-01-30T09:12:14;2.42;;;2.15;;
76656;SDS011;65576;47.714;9.414;2024-01-30T09:14:39;3.30;;;1.52;;
76656;SDS011;65576;47.714;9.414;2024-01-30T09:17:05;2.50;;;1.73;;
76656;SDS011;65576;47.714;9.414;2024-01-30T09:19:31;4.20;;;2.15;;
76656;SDS011;65576;47.714;9.414;2024-01-30T09:21:56;1.85;;;1.75;;
76656;SDS011;65576;47.714;9.414;2024-01-30T09:24:21;2.30;;;1.90;;
76656;SDS011;65576;47.714;9.414;2024-01-30T09:26:46;1.15;;;1.05;;
76656;SDS011;65576;47.714;9.414;2024-01-30T09:29:12;1.98;;;1.52;;
76656;SDS011;65576;47.714;9.414;2024-01-30T09:31:37;1.88;;;1.73;;
76656;SDS011;65576;47.714;9.414;2024-01-30T09:34:02;2.15;;;1.50;;
76656;SDS011;65576;47.714;9.414;2024-01-30T09:36:28;3.13;;;2.45;;
76656;SDS011;65576;47.714;9.414;2024-01-30T09:38:53;3.95;;;2.10;;
76656;SDS011;65576;47.714;9.414;2024-01-30T09:41:19;1.50;;;1.40;;
76656;SDS011;65576;47.714;9.414;2024-01-30T09:43:46;2.55;;;1.48;;
76656;SDS011;65576;47.714;9.414;2024-01-30T09:46:13;3.08;;;2.58;;
76656;SDS011;65576;47.714;9.414;2024-01-30T09:48:41;3.80;;;2.25;;
76656;SDS011;65576;47.714;9.414;2024-01-30T09:51:07;3.25;;;1.58;;
76656;SDS011;65576;47.714;9.414;2024-01-30T09:53:34;2.30;;;1.85;;
76656;SDS011;65576;47.714;9.414;2024-01-30T09:55:59;3.58;;;2.00;;
76656;SDS011;65576;47.714;9.414;2024-01-30T09:58:26;2.60;;;2.15;;
76656;SDS011;65576;47.714;9.414;2024-01-30T10:00:51;2.67;;;1.60;;
76656;SDS011;65576;47.714;9.414;2024-01-30T10:03:18;2.38;;;2.17;;
76656;SDS011;65576;47.714;9.414;2024-01-30T10:05:44;2.55;;;1.58;;
76656;SDS011;65576;47.714;9.414;2024-01-30T10:08:16;1.75;;;1.40;;
76656;SDS011;65576;47.714;9.414;2024-01-30T10:10:45;2.83;;;1.52;;
76656;SDS011;65576;47.714;9.414;2024-01-30T10:13:11;2.20;;;2.00;;
76656;SDS011;65576;47.714;9.414;2024-01-30T10:15:37;4.70;;;2.72;;
76656;SDS011;65576;47.714;9.414;2024-01-30T10:18:03;6.20;;;3.30;;
76656;SDS011;65576;47.714;9.414;2024-01-30T10:20:33;1.70;;;1.38;;
76656;SDS011;65576;47.714;9.414;2024-01-30T10:22:59;3.03;;;2.25;;
76656;SDS011;65576;47.714;9.414;2024-01-30T10:25:25;4.07;;;1.92;;
76656;SDS011;65576;47.714;9.414;2024-01-30T10:27:53;3.30;;;2.15;;
76656;SDS011;65576;47.714;9.414;2024-01-30T10:30:22;3.22;;;1.98;;
76656;SDS011;65576;47.714;9.414;2024-01-30T10:32:47;3.03;;;2.22;;
76656;SDS011;65576;47.714;9.414;2024-01-30T10:35:13;2.35;;;1.70;;
76656;SDS011;65576;47.714;9.414;2024-01-30T10:37:38;2.10;;;1.70;;
76656;SDS011;65576;47.714;9.414;2024-01-30T10:40:04;2.33;;;2.05;;
76656;SDS011;65576;47.714;9.414;2024-01-30T10:42:31;3.22;;;2.10;;
76656;SDS011;65576;47.714;9.414;2024-01-30T10:45:15;4.28;;;1.80;;
76656;SDS011;65576;47.714;9.414;2024-01-30T10:47:47;3.10;;;1.55;;
76656;SDS011;65576;47.714;9.414;2024-01-30T10:50:16;1.75;;;1.30;;
76656;SDS011;65576;47.714;9.414;2024-01-30T10:52:41;2.67;;;1.90;;
76656;SDS011;65576;47.714;9.414;2024-01-30T10:55:07;2.10;;;1.90;;
76656;SDS011;65576;47.714;9.414;2024-01-30T10:57:33;3.00;;;1.67;;
76656;SDS011;65576;47.714;9.414;2024-01-30T11:00:00;4.20;;;2.42;;
76656;SDS011;65576;47.714;9.414;2024-01-30T11:02:30;2.35;;;2.15;;
76656;SDS011;65576;47.714;9.414;2024-01-30T11:04:56;2.85;;;2.03;;
76656;SDS011;65576;47.714;9.414;2024-01-30T11:07:26;3.50;;;2.40;;
76656;SDS011;65576;47.714;9.414;2024-01-30T11:10:02;2.92;;;2.42;;
76656;SDS011;65576;47.714;9.414;2024-01-30T11:12:29;2.45;;;2.25;;
76656;SDS011;65576;47.714;9.414;2024-01-30T11:15:04;2.83;;;1.88;;
76656;SDS011;65576;47.714;9.414;2024-01-30T11:17:44;2.33;;;2.05;;
76656;SDS011;65576;47.714;9.414;2024-01-30T11:20:10;2.85;;;2.33;;
76656;SDS011;65576;47.714;9.414;2024-01-30T11:22:46;2.20;;;1.33;;
76656;SDS011;65576;47.714;9.414;2024-01-30T11:25:15;2.63;;;2.08;;
76656;SDS011;65576;47.714;9.414;2024-01-30T11:27:42;1.55;;;1.45;;
76656;SDS011;65576;47.714;9.414;2024-01-30T11:30:08;3.25;;;2.40;;
76656;SDS011;65576;47.714;9.414;2024-01-30T11:32:33;7.20;;;3.17;;
76656;SDS011;65576;47.714;9.414;2024-01-30T11:34:59;4.53;;;3.05;;
76656;SDS011;65576;47.714;9.414;2024-01-30T11:37:27;5.00;;;2.95;;
76656;SDS011;65576;47.714;9.414;2024-01-30T11:39:53;2.22;;;1.85;;
76656;SDS011;65576;47.714;9.414;2024-01-30T11:42:19;1.80;;;1.60;;
76656;SDS011;65576;47.714;9.414;2024-01-30T11:44:48;3.30;;;2.25;;
76656;SDS011;65576;47.714;9.414;2024-01-30T11:47:14;4.38;;;2.95;;
76656;SDS011;65576;47.714;9.414;2024-01-30T11:49:39;2.63;;;2.30;;
76656;SDS011;65576;47.714;9.414;2024-01-30T11:52:05;3.75;;;2.13;;
76656;SDS011;65576;47.714;9.414;2024-01-30T11:54:30;3.45;;;3.13;;
76656;SDS011;65576;47.714;9.414;2024-01-30T11:56:55;3.55;;;2.88;;
76656;SDS011;65576;47.714;9.414;2024-01-30T11:59:21;2.83;;;2.08;;
76656;SDS011;65576;47.714;9.414;2024-01-30T12:01:46;3.42;;;2.65;;
76656;SDS011;65576;47.714;9.414;2024-01-30T12:04:11;6.15;;;2.67;;
76656;SDS011;65576;47.714;9.414;2024-01-30T12:06:37;2.55;;;1.80;;
76656;SDS011;65576;47.714;9.414;2024-01-30T12:09:03;4.95;;;3.55;;
76656;SDS011;65576;47.714;9.414;2024-01-30T12:11:47;4.80;;;3.17;;
76656;SDS011;65576;47.714;9.414;2024-01-30T12:14:13;3.88;;;2.67;;
76656;SDS011;65576;47.714;9.414;2024-01-30T12:16:38;3.75;;;2.42;;
76656;SDS011;65576;47.714;9.414;2024-01-30T12:19:03;6.30;;;3.05;;
76656;SDS011;65576;47.714;9.414;2024-01-30T12:21:29;4.60;;;3.03;;
76656;SDS011;65576;47.714;9.414;2024-01-30T12:23:55;7.63;;;3.35;;
76656;SDS011;65576;47.714;9.414;2024-01-30T12:26:21;3.75;;;2.47;;
76656;SDS011;65576;47.714;9.414;2024-01-30T12:28:47;3.88;;;2.67;;
76656;SDS011;65576;47.714;9.414;2024-01-30T12:31:13;6.60;;;2.75;;
76656;SDS011;65576;47.714;9.414;2024-01-30T12:33:39;3.75;;;3.13;;
76656;SDS011;65576;47.714;9.414;2024-01-30T12:36:04;4.63;;;2.30;;
76656;SDS011;65576;47.714;9.414;2024-01-30T12:38:30;3.00;;;2.75;;
76656;SDS011;65576;47.714;9.414;2024-01-30T12:40:55;4.05;;;2.75;;
76656;SDS011;65576;47.714;9.414;2024-01-30T12:43:21;3.28;;;2.80;;
76656;SDS011;65576;47.714;9.414;2024-01-30T12:45:47;4.60;;;3.30;;
76656;SDS011;65576;47.714;9.414;2024-01-30T12:48:12;5.47;;;3.63;;
76656;SDS011;65576;47.714;9.414;2024-01-30T12:50:38;4.88;;;3.20;;
76656;SDS011;65576;47.714;9.414;2024-01-30T12:53:03;5.13;;;3.75;;
76656;SDS011;65576;47.714;9.414;2024-01-30T12:55:29;5.10;;;3.33;;
76656;SDS011;65576;47.714;9.414;2024-01-30T12:57:55;6.00;;;3.45;;
76656;SDS011;65576;47.714;9.414;2024-01-30T13:00:20;5.72;;;5.05;;
76656;SDS011;65576;47.714;9.414;2024-01-30T13:02:47;4.03;;;3.22;;
76656;SDS011;65576;47.714;9.414;2024-01-30T13:05:12;9.27;;;3.30;;
76656;SDS011;65576;47.714;9.414;2024-01-30T13:07:37;8.00;;;3.95;;
76656;SDS011;65576;47.714;9.414;2024-01-30T13:10:03;8.60;;;3.80;;
76656;SDS011;65576;47.714;9.414;2024-01-30T13:12:29;4.20;;;3.22;;
76656;SDS011;65576;47.714;9.414;2024-01-30T13:14:55;4.00;;;3.10;;
76656;SDS011;65576;47.714;9.414;2024-01-30T13:17:20;9.80;;;3.25;;
76656;SDS011;65576;47.714;9.414;2024-01-30T13:19:45;6.15;;;3.63;;
76656;SDS011;65576;47.714;9.414;2024-01-30T13:22:11;6.50;;;3.80;;
76656;SDS011;65576;47.714;9.414;2024-01-30T13:24:36;7.65;;;4.63;;
76656;SDS011;65576;47.714;9.414;2024-01-30T13:27:02;8.93;;;3.72;;
76656;SDS011;65576;47.714;9.414;2024-01-30T13:29:28;8.05;;;4.82;;
76656;SDS011;65576;47.714;9.414;2024-01-30T13:31:53;8.15;;;4.28;;
76656;SDS011;65576;47.714;9.414;2024-01-30T13:34:18;5.65;;;3.47;;
76656;SDS011;65576;47.714;9.414;2024-01-30T13:36:44;4.75;;;3.30;;
76656;SDS011;65576;47.714;9.414;2024-01-30T13:39:09;5.85;;;3.67;;
76656;SDS011;65576;47.714;9.414;2024-01-30T13:41:37;7.93;;;3.75;;
76656;SDS011;65576;47.714;9.414;2024-01-30T13:44:02;4.88;;;3.30;;
76656;SDS011;65576;47.714;9.414;2024-01-30T13:46:28;9.15;;;3.80;;
76656;SDS011;65576;47.714;9.414;2024-01-30T13:48:54;11.73;;;5.82;;
76656;SDS011;65576;47.714;9.414;2024-01-30T13:51:19;5.38;;;4.18;;
76656;SDS011;65576;47.714;9.414;2024-01-30T13:53:45;4.53;;;2.97;;
76656;SDS011;65576;47.714;9.414;2024-01-30T13:56:10;14.55;;;5.40;;
76656;SDS011;65576;47.714;9.414;2024-01-30T13:58:36;6.70;;;4.80;;
76656;SDS011;65576;47.714;9.414;2024-01-30T14:01:01;5.72;;;3.65;;
76656;SDS011;65576;47.714;9.414;2024-01-30T14:03:27;6.03;;;3.70;;
76656;SDS011;65576;47.714;9.414;2024-01-30T14:05:52;6.43;;;4.30;;
76656;SDS011;65576;47.714;9.414;2024-01-30T14:08:18;7.72;;;4.00;;
76656;SDS011;65576;47.714;9.414;2024-01-30T14:10:43;6.20;;;4.00;;
76656;SDS011;65576;47.714;9.414;2024-01-30T14:13:09;9.93;;;4.78;;
76656;SDS011;65576;47.714;9.414;2024-01-30T14:15:34;4.82;;;3.70;;
76656;SDS011;65576;47.714;9.414;2024-01-30T14:17:59;5.22;;;4.10;;
76656;SDS011;65576;47.714;9.414;2024-01-30T14:20:25;10.63;;;4.03;;
76656;SDS011;65576;47.714;9.414;2024-01-30T14:22:50;9.05;;;3.58;;
76656;SDS011;65576;47.714;9.414;2024-01-30T14:25:18;4.13;;;3.10;;
76656;SDS011;65576;47.714;9.414;2024-01-30T14:27:43;5.85;;;3.85;;
76656;SDS011;65576;47.714;9.414;2024-01-30T14:30:10;7.00;;;4.25;;
76656;SDS011;65576;47.714;9.414;2024-01-30T14:32:35;8.02;;;4.25;;
76656;SDS011;65576;47.714;9.414;2024-01-30T14:35:00;7.53;;;4.47;;
76656;SDS011;65576;47.714;9.414;2024-01-30T14:37:26;6.15;;;3.80;;
76656;SDS011;65576;47.714;9.414;2024-01-30T14:39:54;6.78;;;4.05;;